Pagina principale
METAR-TAF:

METAR-TAF

Aeroporti :

Aeroporto di Cardiff

Cardiff, Galles

latitudine: 51-24N, longitudine: 003-21W, altezza: 67 m

Osservazione

Il bollettino è stato emesso 39 minuti fa, alle 06:20 UTC
Vento 7 kt da nord-ovest
Temperature 3°C
Umidità 93%
Pressione 1018 hPa
Visibilità 10 km o più
Nuvoloso ad un'altezza di 3600 ft

METAR: EGFF 180620Z AUTO 32007KT 9999 BKN036 03/02 Q1018

Ora: 06:59 (06:59 UTC)

Previsione

Il bollettino è stato emesso 1 ora e 54 minuti fa, alle 05:05 UTC
Previsione valida dal 18 alle 06 UTC al 19 alle 06 UTC
Vento 6 kt da nord
Visibilità 10 km o più
Poco nuvoloso ad un'altezza di 2000 ft
Probabilità 40%
dal 18 alle 19 UTC al 19 alle 06 UTC
Visibilità: 5000 m
foschia

TAF: EGFF 180505Z 1806/1906 35006KT 9999 FEW020 PROB40 1819/1906 5000 BR

Osservazioni e previsioni meteorologiche di più di 4000 aeroporti (messaggi METAR e TAF).

Le stazioni disponibili sono rappresentate dai dischi gialli e rossi sulla carta.

Puntare il mouse per vedere il nome della stazione.

Clicca sopra per visualizzare le osservazioni e previsioni meteorologiche.

Per cambiare la mappa : fare clic sui pulsanti verdi con una croce nera per ingrandire, il pulsante verde con un trattino per diminuire, o sulla freccia verde per le mappe adiacenti.


METAR-TAF: